createdAt,value
2019-04-05T00:00:28.525Z,993.14
2019-04-05T00:01:23.500Z,993.17
2019-04-05T00:02:23.483Z,993.18
2019-04-05T00:03:23.498Z,993.18
2019-04-05T00:04:23.476Z,993.17
2019-04-05T00:05:23.475Z,993.19
2019-04-05T00:06:23.436Z,993.24
2019-04-05T00:07:23.431Z,993.22
2019-04-05T00:08:23.436Z,993.22
2019-04-05T00:09:23.410Z,993.21
2019-04-05T00:10:23.413Z,993.16
2019-04-05T00:11:28.448Z,993.27
2019-04-05T00:12:23.374Z,993.13
2019-04-05T00:13:23.370Z,993.13
2019-04-05T00:14:23.347Z,993.23
2019-04-05T00:15:23.348Z,993.22
2019-04-05T00:16:23.339Z,993.19
2019-04-05T00:17:23.321Z,993.25
2019-04-05T00:18:23.333Z,993.19
2019-04-05T00:19:23.292Z,993.17
2019-04-05T00:20:23.282Z,993.21
2019-04-05T00:21:23.273Z,993.22
2019-04-05T00:22:28.291Z,993.18
2019-04-05T00:23:23.292Z,993.21
2019-04-05T00:24:23.250Z,993.16
2019-04-05T00:25:23.224Z,993.25
2019-04-05T00:26:23.246Z,993.22
2019-04-05T00:27:23.216Z,993.29
2019-04-05T00:28:23.226Z,993.28
2019-04-05T00:29:23.197Z,993.29
2019-04-05T00:30:23.183Z,993.31
2019-04-05T00:31:23.169Z,993.26
2019-04-05T00:32:23.170Z,993.27
2019-04-05T00:33:28.174Z,993.37
2019-04-05T00:34:23.176Z,993.38
2019-04-05T00:35:23.117Z,993.37
2019-04-05T00:36:23.134Z,993.36
2019-04-05T00:37:23.096Z,993.38
2019-04-05T00:38:23.083Z,993.40
2019-04-05T00:39:23.122Z,993.41
2019-04-05T00:40:23.074Z,993.44
2019-04-05T00:41:23.079Z,993.40
2019-04-05T00:42:23.051Z,993.41
2019-04-05T00:43:23.059Z,993.44
2019-04-05T00:44:28.045Z,993.39
2019-04-05T00:45:28.300Z,993.43
2019-04-05T00:46:23.991Z,993.50
2019-04-05T00:47:22.978Z,993.49
2019-04-05T00:48:23.019Z,993.47
2019-04-05T00:49:23.026Z,993.49
2019-04-05T00:50:22.945Z,993.44
2019-04-05T00:51:22.950Z,993.48
2019-04-05T00:52:22.928Z,993.41
2019-04-05T00:53:22.913Z,993.46
2019-04-05T00:54:22.933Z,993.42
2019-04-05T00:55:27.912Z,993.39
2019-04-05T00:56:22.897Z,993.41
2019-04-05T00:57:22.908Z,993.35
2019-04-05T00:58:22.873Z,993.37
2019-04-05T00:59:22.856Z,993.41
2019-04-05T01:00:22.835Z,993.36
2019-04-05T01:01:22.821Z,993.35
2019-04-05T01:02:22.833Z,993.27
2019-04-05T01:03:22.802Z,993.29
2019-04-05T01:04:22.803Z,993.26
2019-04-05T01:05:22.779Z,993.22
2019-04-05T01:06:27.792Z,993.17
2019-04-05T01:07:22.757Z,993.22
2019-04-05T01:08:22.744Z,993.15
2019-04-05T01:09:22.750Z,993.21
2019-04-05T01:10:22.722Z,993.21
2019-04-05T01:11:22.718Z,993.20
2019-04-05T01:12:22.711Z,993.22
2019-04-05T01:13:22.689Z,993.21
2019-04-05T01:14:22.712Z,993.14
2019-04-05T01:15:22.671Z,993.13
2019-04-05T01:16:22.655Z,993.14
2019-04-05T01:17:27.675Z,993.16
2019-04-05T01:18:22.654Z,993.10
2019-04-05T01:19:22.626Z,993.17
2019-04-05T01:20:22.646Z,993.23
2019-04-05T01:21:22.611Z,993.23
2019-04-05T01:22:22.593Z,993.20
2019-04-05T01:23:22.580Z,993.20
2019-04-05T01:24:22.565Z,993.17
2019-04-05T01:25:22.581Z,993.18
2019-04-05T01:26:22.555Z,993.14
2019-04-05T01:27:22.534Z,993.06
2019-04-05T01:28:27.543Z,993.22
2019-04-05T01:29:22.511Z,993.12
2019-04-05T01:30:22.518Z,993.20
2019-04-05T01:31:22.487Z,993.20
2019-04-05T01:32:22.478Z,993.18
2019-04-05T01:33:22.470Z,993.20
2019-04-05T01:34:22.453Z,993.21
2019-04-05T01:35:22.451Z,993.21
2019-04-05T01:36:22.436Z,993.29
2019-04-05T01:37:22.426Z,993.30
2019-04-05T01:38:22.417Z,993.26
2019-04-05T01:39:27.419Z,993.22
2019-04-05T01:40:22.400Z,993.23
2019-04-05T01:41:22.375Z,993.22
2019-04-05T01:42:22.364Z,993.21
2019-04-05T01:43:22.354Z,993.22
2019-04-05T01:44:22.345Z,993.16
2019-04-05T01:45:22.337Z,993.13
2019-04-05T01:46:22.318Z,993.13
2019-04-05T01:47:22.307Z,993.14
2019-04-05T01:48:22.301Z,993.14
2019-04-05T01:49:22.286Z,993.14
2019-04-05T01:50:27.307Z,993.08
2019-04-05T01:51:22.268Z,993.12
2019-04-05T01:52:22.295Z,993.13
2019-04-05T01:53:22.239Z,993.11
2019-04-05T01:54:22.228Z,993.11
2019-04-05T01:55:22.237Z,993.11
2019-04-05T01:56:22.206Z,993.15
2019-04-05T01:57:22.193Z,993.10
2019-04-05T01:58:22.186Z,993.15
2019-04-05T01:59:22.173Z,993.14
2019-04-05T02:00:22.182Z,993.10
2019-04-05T02:01:27.179Z,993.12
2019-04-05T02:02:22.142Z,993.06
2019-04-05T02:03:22.129Z,993.04
2019-04-05T02:04:22.115Z,993.05
2019-04-05T02:05:22.104Z,993.09
2019-04-05T02:06:22.121Z,993.12
2019-04-05T02:07:22.088Z,993.14
2019-04-05T02:08:22.070Z,993.11
2019-04-05T02:09:22.061Z,993.17
2019-04-05T02:10:22.064Z,993.19
2019-04-05T02:11:22.052Z,993.18
2019-04-05T02:12:27.048Z,993.16
2019-04-05T02:13:22.016Z,993.16
2019-04-05T02:14:22.005Z,993.19
2019-04-05T02:15:21.991Z,993.16
2019-04-05T02:16:21.993Z,993.21
2019-04-05T02:17:21.970Z,993.26
2019-04-05T02:18:21.958Z,993.27
2019-04-05T02:19:21.947Z,993.23
2019-04-05T02:20:21.944Z,993.25
2019-04-05T02:21:21.941Z,993.32
2019-04-05T02:22:21.911Z,993.29
2019-04-05T02:23:26.933Z,993.26
2019-04-05T02:24:21.888Z,993.23
2019-04-05T02:25:21.883Z,993.24
2019-04-05T02:26:21.877Z,993.29
2019-04-05T02:27:21.856Z,993.27
2019-04-05T02:28:21.850Z,993.26
2019-04-05T02:29:21.838Z,993.28
2019-04-05T02:30:21.822Z,993.34
2019-04-05T02:31:21.831Z,993.31
2019-04-05T02:32:21.804Z,993.32
2019-04-05T02:33:21.789Z,993.34
2019-04-05T02:34:26.812Z,993.40
2019-04-05T02:35:21.767Z,993.39
2019-04-05T02:36:21.771Z,993.50
2019-04-05T02:37:21.749Z,993.49
2019-04-05T02:38:21.732Z,993.57
2019-04-05T02:39:21.722Z,993.53
2019-04-05T02:40:21.721Z,993.55
2019-04-05T02:41:21.725Z,993.60
2019-04-05T02:42:21.689Z,993.55
2019-04-05T02:43:21.678Z,993.53
2019-04-05T02:44:21.673Z,993.58
2019-04-05T02:45:26.679Z,993.54
2019-04-05T02:46:23.964Z,993.62
2019-04-05T02:47:21.637Z,993.58
2019-04-05T02:48:21.623Z,993.57
2019-04-05T02:49:21.611Z,993.59
2019-04-05T02:50:21.600Z,993.57
2019-04-05T02:51:21.606Z,993.54
2019-04-05T02:52:21.584Z,993.63
2019-04-05T02:53:21.569Z,993.59
2019-04-05T02:54:21.562Z,993.55
2019-04-05T02:55:21.546Z,993.52
2019-04-05T02:56:26.579Z,993.51
2019-04-05T02:57:21.531Z,993.52
2019-04-05T02:58:21.509Z,993.54
2019-04-05T02:59:21.504Z,993.63
2019-04-05T03:00:21.502Z,993.65
2019-04-05T03:01:22.807Z,993.61
2019-04-05T03:02:21.464Z,993.61
2019-04-05T03:03:21.459Z,993.65
2019-04-05T03:04:21.466Z,993.67
2019-04-05T03:05:21.431Z,993.78
2019-04-05T03:06:21.442Z,993.72
2019-04-05T03:07:26.442Z,993.71
2019-04-05T03:08:21.400Z,993.79
2019-04-05T03:09:21.390Z,993.87
2019-04-05T03:10:21.379Z,993.84
2019-04-05T03:11:21.365Z,993.86
2019-04-05T03:12:21.372Z,993.78
2019-04-05T03:13:21.344Z,993.84
2019-04-05T03:14:21.359Z,993.78
2019-04-05T03:15:21.335Z,993.80
2019-04-05T03:16:21.320Z,993.77
2019-04-05T03:17:21.313Z,993.83
2019-04-05T03:18:26.307Z,993.83
2019-04-05T03:19:21.289Z,993.82
2019-04-05T03:20:21.269Z,993.91
2019-04-05T03:21:21.258Z,993.88
2019-04-05T03:22:21.262Z,993.88
2019-04-05T03:23:21.233Z,993.93
2019-04-05T03:24:21.217Z,993.97
2019-04-05T03:25:21.217Z,993.93
2019-04-05T03:26:21.216Z,993.99
2019-04-05T03:27:21.200Z,993.93
2019-04-05T03:28:21.173Z,993.92
2019-04-05T03:29:26.184Z,993.89
2019-04-05T03:30:21.156Z,993.87
2019-04-05T03:31:25.022Z,993.87
2019-04-05T03:32:21.141Z,993.82
2019-04-05T03:33:21.125Z,993.81
2019-04-05T03:34:21.112Z,993.83
2019-04-05T03:35:21.099Z,993.84
2019-04-05T03:36:21.101Z,993.85
2019-04-05T03:37:21.103Z,993.76
2019-04-05T03:38:21.061Z,993.70
2019-04-05T03:39:21.138Z,993.75
2019-04-05T03:40:26.059Z,993.71
2019-04-05T03:41:21.102Z,993.69
2019-04-05T03:42:21.049Z,993.70
2019-04-05T03:43:21.006Z,993.58
2019-04-05T03:44:23.151Z,993.57
2019-04-05T03:45:20.986Z,993.53
2019-04-05T03:46:20.971Z,993.54
2019-04-05T03:47:20.980Z,993.49
2019-04-05T03:48:20.954Z,993.43
2019-04-05T03:49:20.941Z,993.45
2019-04-05T03:50:20.925Z,993.42
2019-04-05T03:51:25.972Z,993.40
2019-04-05T03:52:20.916Z,993.37
2019-04-05T03:53:20.891Z,993.43
2019-04-05T03:54:20.883Z,993.40
2019-04-05T03:55:20.884Z,993.37
2019-04-05T03:56:20.860Z,993.33
2019-04-05T03:57:21.025Z,993.41
2019-04-05T03:58:20.848Z,993.34
2019-04-05T03:59:20.868Z,993.31
2019-04-05T04:00:20.857Z,993.33
2019-04-05T04:01:20.804Z,993.33
2019-04-05T04:02:25.826Z,993.40
2019-04-05T04:03:20.782Z,993.37
2019-04-05T04:04:20.771Z,993.45
2019-04-05T04:05:20.758Z,993.48
2019-04-05T04:06:20.771Z,993.45
2019-04-05T04:07:20.753Z,993.40
2019-04-05T04:08:23.465Z,993.48
2019-04-05T04:09:20.713Z,993.48
2019-04-05T04:10:20.705Z,993.34
2019-04-05T04:11:20.697Z,993.44
2019-04-05T04:12:20.689Z,993.40
2019-04-05T04:13:25.744Z,993.39
2019-04-05T04:14:20.665Z,993.36
2019-04-05T04:15:20.656Z,993.35
2019-04-05T04:16:20.637Z,993.43
2019-04-05T04:17:20.648Z,993.39
2019-04-05T04:18:20.635Z,993.40
2019-04-05T04:19:20.603Z,993.38
2019-04-05T04:20:20.592Z,993.42
2019-04-05T04:21:20.600Z,993.43
2019-04-05T04:22:20.574Z,993.52
2019-04-05T04:23:20.587Z,993.54
2019-04-05T04:24:25.604Z,993.57
2019-04-05T04:25:20.569Z,993.57
2019-04-05T04:26:20.539Z,993.52
2019-04-05T04:27:20.522Z,993.53
2019-04-05T04:28:20.517Z,993.48
2019-04-05T04:29:20.498Z,993.54
2019-04-05T04:30:20.482Z,993.53
2019-04-05T04:31:20.471Z,993.58
2019-04-05T04:32:20.459Z,993.49
2019-04-05T04:33:20.474Z,993.55
2019-04-05T04:34:20.443Z,993.56
2019-04-05T04:35:25.463Z,993.53
2019-04-05T04:36:20.415Z,993.53
2019-04-05T04:37:20.403Z,993.55
2019-04-05T04:38:20.404Z,993.57
2019-04-05T04:39:20.381Z,993.55
2019-04-05T04:40:20.374Z,993.56
2019-04-05T04:41:20.363Z,993.56
2019-04-05T04:42:20.354Z,993.62
2019-04-05T04:43:20.368Z,993.60
2019-04-05T04:44:20.321Z,993.68
2019-04-05T04:45:20.313Z,993.71
2019-04-05T04:46:25.341Z,993.65
2019-04-05T04:47:26.957Z,993.73
2019-04-05T04:48:21.299Z,993.72
2019-04-05T04:49:20.267Z,993.70
2019-04-05T04:50:20.255Z,993.68
2019-04-05T04:51:20.250Z,993.80
2019-04-05T04:52:20.241Z,993.73
2019-04-05T04:53:20.238Z,993.74
2019-04-05T04:54:20.229Z,993.79
2019-04-05T04:55:20.218Z,993.72
2019-04-05T04:56:20.190Z,993.76
2019-04-05T04:57:25.213Z,993.79
2019-04-05T04:58:20.172Z,993.75
2019-04-05T04:59:20.177Z,993.71
2019-04-05T05:00:20.148Z,993.80
2019-04-05T05:01:20.133Z,993.73
2019-04-05T05:02:20.122Z,993.73
2019-04-05T05:03:20.111Z,993.80
2019-04-05T05:04:20.118Z,993.79
2019-04-05T05:05:20.095Z,993.75
2019-04-05T05:06:20.083Z,993.77
2019-04-05T05:07:20.064Z,993.78
2019-04-05T05:08:25.085Z,993.74
2019-04-05T05:09:20.056Z,993.77
2019-04-05T05:10:20.032Z,993.73
2019-04-05T05:11:20.020Z,993.78
2019-04-05T05:12:20.008Z,993.77
2019-04-05T05:13:19.995Z,993.75
2019-04-05T05:14:20.003Z,993.82
2019-04-05T05:15:20.032Z,993.80
2019-04-05T05:16:19.965Z,993.74
2019-04-05T05:17:19.953Z,993.78
2019-04-05T05:18:19.939Z,993.75
2019-04-05T05:19:24.970Z,993.70
2019-04-05T05:20:19.922Z,993.74
2019-04-05T05:21:19.917Z,993.79
2019-04-05T05:22:19.925Z,993.74
2019-04-05T05:23:19.896Z,993.81
2019-04-05T05:24:19.963Z,993.79
2019-04-05T05:25:19.863Z,993.91
2019-04-05T05:26:19.864Z,993.88
2019-04-05T05:27:19.856Z,993.83
2019-04-05T05:28:19.831Z,993.90
2019-04-05T05:29:19.841Z,993.93
2019-04-05T05:30:24.828Z,993.98
2019-04-05T05:31:19.795Z,993.93
2019-04-05T05:32:19.820Z,993.91
2019-04-05T05:33:19.786Z,993.97
2019-04-05T05:34:19.761Z,993.96
2019-04-05T05:35:19.762Z,993.94
2019-04-05T05:36:19.737Z,993.92
2019-04-05T05:37:19.731Z,993.96
2019-04-05T05:38:19.715Z,993.93
2019-04-05T05:39:19.719Z,994.02
2019-04-05T05:40:19.709Z,993.97
2019-04-05T05:41:24.708Z,993.96
2019-04-05T05:42:19.674Z,993.99
2019-04-05T05:43:19.670Z,993.95
2019-04-05T05:44:19.756Z,993.99
2019-04-05T05:45:19.647Z,993.98
2019-04-05T05:46:19.627Z,993.99
2019-04-05T05:47:19.625Z,994.05
2019-04-05T05:48:19.605Z,994.08
2019-04-05T05:49:19.595Z,994.07
2019-04-05T05:50:19.591Z,993.98
2019-04-05T05:51:19.581Z,993.90
2019-04-05T05:52:24.581Z,993.98
2019-04-05T05:53:19.547Z,993.91
2019-04-05T05:54:19.537Z,993.93
2019-04-05T05:55:19.549Z,993.95
2019-04-05T05:56:19.513Z,993.83
2019-04-05T05:57:19.507Z,993.88
2019-04-05T05:58:19.491Z,993.83
2019-04-05T05:59:19.484Z,993.95
2019-04-05T06:00:19.492Z,993.93
2019-04-05T06:01:19.468Z,993.93
2019-04-05T06:02:19.462Z,993.99
2019-04-05T06:03:24.459Z,993.98
2019-04-05T06:04:19.435Z,994.00
2019-04-05T06:05:19.447Z,993.98
2019-04-05T06:06:19.410Z,994.05
2019-04-05T06:07:20.211Z,994.03
2019-04-05T06:08:19.383Z,994.00
2019-04-05T06:09:19.374Z,994.03
2019-04-05T06:10:19.378Z,994.02
2019-04-05T06:11:19.346Z,994.02
2019-04-05T06:12:19.337Z,994.09
2019-04-05T06:13:19.343Z,994.02
2019-04-05T06:14:24.335Z,994.01
2019-04-05T06:15:19.318Z,993.99
2019-04-05T06:16:19.303Z,994.01
2019-04-05T06:17:19.278Z,993.94
2019-04-05T06:18:19.275Z,994.00
2019-04-05T06:19:19.256Z,994.01
2019-04-05T06:20:19.247Z,994.08
2019-04-05T06:21:19.253Z,994.01
2019-04-05T06:22:19.242Z,994.02
2019-04-05T06:23:32.727Z,994.10
2019-04-05T06:24:20.200Z,994.02
2019-04-05T06:25:24.240Z,994.11
2019-04-05T06:26:19.177Z,994.11
2019-04-05T06:27:19.172Z,994.07
2019-04-05T06:28:19.172Z,994.03
2019-04-05T06:29:19.149Z,994.02
2019-04-05T06:30:19.142Z,994.06
2019-04-05T06:31:19.134Z,993.92
2019-04-05T06:32:19.111Z,993.96
2019-04-05T06:33:31.003Z,993.98
2019-04-05T06:34:20.095Z,993.98
2019-04-05T06:35:19.082Z,993.95
2019-04-05T06:36:24.128Z,993.90
2019-04-05T06:37:19.052Z,993.89
2019-04-05T06:38:19.043Z,993.85
2019-04-05T06:39:20.661Z,993.79
2019-04-05T06:40:19.020Z,993.73
2019-04-05T06:41:19.025Z,993.69
2019-04-05T06:42:18.997Z,993.73
2019-04-05T06:43:18.986Z,993.70
2019-04-05T06:44:18.975Z,993.69
2019-04-05T06:45:18.974Z,993.64
2019-04-05T06:46:18.966Z,993.58
2019-04-05T06:47:23.995Z,993.61
2019-04-05T06:48:19.886Z,993.70
2019-04-05T06:49:18.920Z,993.73
2019-04-05T06:50:18.914Z,993.63
2019-04-05T06:51:18.925Z,993.72
2019-04-05T06:52:18.883Z,993.69
2019-04-05T06:53:18.877Z,993.65
2019-04-05T06:54:18.860Z,993.68
2019-04-05T06:55:18.855Z,993.66
2019-04-05T06:56:18.859Z,993.69
2019-04-05T06:57:18.827Z,993.71
2019-04-05T06:58:28.913Z,993.65
2019-04-05T06:59:19.810Z,993.72
2019-04-05T07:00:18.795Z,993.75
2019-04-05T07:01:18.807Z,993.67
2019-04-05T07:02:18.779Z,993.65
2019-04-05T07:03:18.815Z,993.66
2019-04-05T07:04:18.750Z,993.71
2019-04-05T07:05:20.935Z,993.70
2019-04-05T07:06:18.749Z,993.68
2019-04-05T07:07:18.731Z,993.61
2019-04-05T07:08:18.711Z,993.66
2019-04-05T07:09:23.714Z,993.65
2019-04-05T07:10:18.686Z,993.62
2019-04-05T07:11:19.070Z,993.66
2019-04-05T07:12:20.591Z,993.65
2019-04-05T07:13:18.666Z,993.61
2019-04-05T07:14:18.664Z,993.67
2019-04-05T07:15:18.627Z,993.70
2019-04-05T07:16:18.650Z,993.60
2019-04-05T07:17:18.664Z,993.61
2019-04-05T07:18:31.584Z,993.60
2019-04-05T07:19:19.671Z,993.60
2019-04-05T07:20:23.931Z,993.67
2019-04-05T07:21:18.563Z,993.60
2019-04-05T07:22:31.892Z,993.61
2019-04-05T07:23:19.551Z,993.60
2019-04-05T07:24:18.531Z,993.61
2019-04-05T07:25:18.514Z,993.59
2019-04-05T07:26:20.843Z,993.68
2019-04-05T07:27:18.508Z,993.58
2019-04-05T07:28:18.507Z,993.57
2019-04-05T07:29:18.476Z,993.59
2019-04-05T07:30:18.460Z,993.58
2019-04-05T07:31:23.470Z,993.60
2019-04-05T07:32:18.546Z,993.62
2019-04-05T07:33:18.440Z,993.59
2019-04-05T07:34:18.453Z,993.65
2019-04-05T07:35:18.445Z,993.64
2019-04-05T07:36:18.423Z,993.76
2019-04-05T07:37:18.391Z,993.72
2019-04-05T07:38:18.425Z,993.70
2019-04-05T07:39:18.356Z,993.70
2019-04-05T07:40:18.346Z,993.66
2019-04-05T07:41:18.354Z,993.66
2019-04-05T07:42:23.365Z,993.71
2019-04-05T07:43:18.312Z,993.70
2019-04-05T07:44:18.304Z,993.73
2019-04-05T07:45:18.303Z,993.76
2019-04-05T07:46:18.281Z,993.65
2019-04-05T07:47:18.289Z,993.72
2019-04-05T07:48:18.255Z,993.74
2019-04-05T07:49:18.241Z,993.68
2019-04-05T07:50:18.232Z,993.67
2019-04-05T07:51:18.226Z,993.72
2019-04-05T07:52:18.224Z,993.74
2019-04-05T07:53:23.217Z,993.79
2019-04-05T07:54:18.185Z,993.75
2019-04-05T07:55:18.178Z,993.73
2019-04-05T07:56:18.169Z,993.82
2019-04-05T07:57:18.166Z,993.79
2019-04-05T07:58:18.143Z,993.86
2019-04-05T07:59:20.805Z,993.83
2019-04-05T08:00:18.122Z,993.81
2019-04-05T08:01:18.129Z,993.80
2019-04-05T08:02:18.140Z,993.80
2019-04-05T08:03:18.083Z,993.80
2019-04-05T08:04:23.105Z,993.83
2019-04-05T08:05:18.064Z,993.87
2019-04-05T08:06:18.062Z,993.81
2019-04-05T08:07:18.057Z,993.89
2019-04-05T08:08:18.033Z,993.88
2019-04-05T08:09:18.018Z,993.83
2019-04-05T08:10:18.005Z,993.88
2019-04-05T08:11:18.012Z,993.85
2019-04-05T08:12:17.985Z,993.90
2019-04-05T08:13:17.991Z,993.86
2019-04-05T08:14:18.374Z,993.87
2019-04-05T08:15:22.976Z,993.81
2019-04-05T08:16:17.942Z,993.84
2019-04-05T08:17:17.928Z,993.80
2019-04-05T08:18:17.932Z,993.79
2019-04-05T08:19:17.938Z,993.74
2019-04-05T08:20:17.912Z,993.75
2019-04-05T08:21:17.891Z,993.79
2019-04-05T08:22:17.870Z,993.83
2019-04-05T08:23:17.874Z,993.85
2019-04-05T08:24:17.863Z,993.88
2019-04-05T08:25:17.839Z,993.84
2019-04-05T08:26:22.846Z,993.92
2019-04-05T08:27:17.819Z,993.91
2019-04-05T08:28:17.816Z,993.94
2019-04-05T08:29:17.791Z,993.84
2019-04-05T08:30:17.784Z,993.84
2019-04-05T08:31:17.788Z,993.90
2019-04-05T08:32:17.755Z,993.91
2019-04-05T08:33:17.759Z,993.96
2019-04-05T08:34:17.735Z,993.92
2019-04-05T08:35:17.724Z,993.95
2019-04-05T08:36:17.727Z,993.93
2019-04-05T08:37:22.726Z,993.97
2019-04-05T08:38:17.710Z,993.92
2019-04-05T08:39:17.681Z,993.97
2019-04-05T08:40:17.674Z,993.90
2019-04-05T08:41:17.655Z,993.94
2019-04-05T08:42:17.651Z,993.89
2019-04-05T08:43:17.659Z,993.87
2019-04-05T08:44:17.623Z,993.94
2019-04-05T08:45:17.617Z,993.90
2019-04-05T08:46:17.597Z,993.88
2019-04-05T08:47:17.595Z,993.88
2019-04-05T08:48:22.617Z,993.90
2019-04-05T08:49:17.568Z,993.81
2019-04-05T08:50:17.564Z,993.91
2019-04-05T08:51:17.541Z,993.88
2019-04-05T08:52:17.591Z,993.89
2019-04-05T08:53:17.551Z,993.89
2019-04-05T08:54:17.509Z,993.90
2019-04-05T08:55:17.500Z,993.89
2019-04-05T08:56:17.488Z,994.00
2019-04-05T08:57:17.473Z,994.02
2019-04-05T08:58:17.480Z,994.03
2019-04-05T08:59:22.488Z,994.03
2019-04-05T09:00:17.444Z,994.00
2019-04-05T09:01:17.428Z,993.96
2019-04-05T09:02:17.419Z,993.99
2019-04-05T09:03:17.407Z,994.03
2019-04-05T09:04:17.416Z,994.00
2019-04-05T09:05:17.383Z,993.95
2019-04-05T09:06:17.372Z,994.02
2019-04-05T09:07:17.361Z,993.92
2019-04-05T09:08:17.373Z,994.00
2019-04-05T09:09:17.366Z,994.00
2019-04-05T09:10:22.361Z,993.95
2019-04-05T09:11:17.320Z,994.00
2019-04-05T09:12:17.303Z,993.97
2019-04-05T09:13:17.292Z,994.00
2019-04-05T09:14:17.294Z,993.97
2019-04-05T09:15:17.278Z,993.97
2019-04-05T09:16:17.262Z,994.00
2019-04-05T09:17:17.267Z,993.97
2019-04-05T09:18:17.239Z,993.95
2019-04-05T09:19:23.549Z,994.02
2019-04-05T09:20:18.238Z,993.88
2019-04-05T09:21:22.234Z,993.91
2019-04-05T09:22:17.191Z,993.87
2019-04-05T09:23:17.180Z,993.94
2019-04-05T09:24:17.183Z,993.93
2019-04-05T09:25:19.715Z,993.98
2019-04-05T09:26:17.156Z,993.98
2019-04-05T09:27:17.139Z,993.97
2019-04-05T09:28:17.145Z,993.96
2019-04-05T09:29:17.132Z,993.99
2019-04-05T09:30:17.102Z,993.93
2019-04-05T09:31:17.099Z,993.96
2019-04-05T09:32:22.127Z,993.95
2019-04-05T09:33:17.067Z,993.82
2019-04-05T09:34:17.092Z,993.91
2019-04-05T09:35:17.047Z,993.78
2019-04-05T09:36:17.037Z,993.82
2019-04-05T09:37:17.032Z,993.81
2019-04-05T09:38:17.009Z,993.82
2019-04-05T09:39:17.041Z,993.82
2019-04-05T09:40:17.007Z,993.78
2019-04-05T09:41:17.018Z,993.80
2019-04-05T09:42:16.965Z,993.79
2019-04-05T09:43:22.002Z,993.81
2019-04-05T09:44:16.957Z,993.80
2019-04-05T09:45:16.931Z,993.82
2019-04-05T09:46:16.944Z,993.74
2019-04-05T09:47:16.914Z,993.70
2019-04-05T09:48:16.900Z,993.70
2019-04-05T09:49:16.907Z,993.70
2019-04-05T09:50:16.876Z,993.65
2019-04-05T09:51:16.874Z,993.72
2019-04-05T09:52:16.854Z,993.75
2019-04-05T09:53:16.849Z,993.68
2019-04-05T09:54:21.865Z,993.67
2019-04-05T09:55:16.819Z,993.69
2019-04-05T09:56:16.814Z,993.61
2019-04-05T09:57:16.801Z,993.63
2019-04-05T09:58:16.783Z,993.60
2019-04-05T09:59:16.782Z,993.64
2019-04-05T10:00:16.762Z,993.59
2019-04-05T10:01:16.751Z,993.62
2019-04-05T10:02:16.745Z,993.66
2019-04-05T10:03:16.728Z,993.62
2019-04-05T10:04:16.733Z,993.67
2019-04-05T10:05:21.727Z,993.55
2019-04-05T10:06:16.693Z,993.57
2019-04-05T10:07:16.685Z,993.62
2019-04-05T10:08:16.677Z,993.56
2019-04-05T10:09:16.662Z,993.54
2019-04-05T10:10:16.658Z,993.56
2019-04-05T10:11:16.645Z,993.57
2019-04-05T10:12:16.631Z,993.56
2019-04-05T10:13:16.620Z,993.56
2019-04-05T10:14:16.672Z,993.57
2019-04-05T10:15:16.609Z,993.54
2019-04-05T10:16:21.608Z,993.51
2019-04-05T10:17:16.596Z,993.51
2019-04-05T10:18:16.567Z,993.49
2019-04-05T10:19:16.566Z,993.57
2019-04-05T10:20:16.563Z,993.57
2019-04-05T10:21:16.538Z,993.57
2019-04-05T10:22:16.512Z,993.56
2019-04-05T10:23:16.505Z,993.56
2019-04-05T10:24:16.490Z,993.55
2019-04-05T10:25:16.499Z,993.60
2019-04-05T10:26:16.469Z,993.57
2019-04-05T10:27:23.017Z,993.59
2019-04-05T10:28:16.444Z,993.49
2019-04-05T10:29:16.438Z,993.48
2019-04-05T10:30:16.454Z,993.39
2019-04-05T10:31:16.412Z,993.46
2019-04-05T10:32:16.403Z,993.49
2019-04-05T10:33:16.393Z,993.52
2019-04-05T10:34:16.404Z,993.53
2019-04-05T10:35:16.375Z,993.51
2019-04-05T10:36:16.363Z,993.47
2019-04-05T10:37:16.351Z,993.45
2019-04-05T10:38:21.357Z,993.49
2019-04-05T10:39:16.318Z,993.49
2019-04-05T10:40:16.323Z,993.40
2019-04-05T10:41:16.296Z,993.50
2019-04-05T10:42:16.285Z,993.50
2019-04-05T10:43:16.276Z,993.51
2019-04-05T10:44:16.264Z,993.53
2019-04-05T10:45:16.263Z,993.50
2019-04-05T10:46:16.257Z,993.43
2019-04-05T10:47:16.228Z,993.41
2019-04-05T10:48:16.222Z,993.43
2019-04-05T10:49:21.301Z,993.40
2019-04-05T10:50:16.212Z,993.37
2019-04-05T10:51:16.185Z,993.36
2019-04-05T10:52:16.172Z,993.41
2019-04-05T10:53:16.166Z,993.41
2019-04-05T10:54:16.165Z,993.41
2019-04-05T10:55:16.165Z,993.34
2019-04-05T10:56:16.127Z,993.30
2019-04-05T10:57:16.118Z,993.35
2019-04-05T10:58:16.105Z,993.36
2019-04-05T10:59:16.112Z,993.29
2019-04-05T11:00:21.118Z,993.27
2019-04-05T11:01:16.076Z,993.26
2019-04-05T11:02:16.062Z,993.23
2019-04-05T11:03:16.047Z,993.23
2019-04-05T11:04:16.903Z,993.23
2019-04-05T11:05:16.027Z,993.21
2019-04-05T11:06:16.028Z,993.15
2019-04-05T11:07:16.013Z,993.24
2019-04-05T11:08:15.995Z,993.15
2019-04-05T11:09:16.042Z,993.11
2019-04-05T11:10:15.969Z,993.17
2019-04-05T11:11:21.065Z,993.16
2019-04-05T11:12:15.947Z,993.16
2019-04-05T11:13:15.947Z,993.15
2019-04-05T11:14:15.944Z,993.20
2019-04-05T11:15:15.912Z,993.13
2019-04-05T11:16:15.990Z,993.12
2019-04-05T11:17:15.968Z,993.09
2019-04-05T11:18:15.881Z,993.08
2019-04-05T11:19:15.876Z,993.07
2019-04-05T11:20:21.909Z,993.11
2019-04-05T11:21:18.335Z,993.16
2019-04-05T11:22:21.133Z,993.21
2019-04-05T11:23:15.836Z,993.09
2019-04-05T11:24:15.813Z,993.14
2019-04-05T11:25:15.803Z,993.16
2019-04-05T11:26:15.801Z,993.13
2019-04-05T11:27:15.791Z,993.15
2019-04-05T11:28:15.764Z,993.12
2019-04-05T11:29:15.753Z,993.09
2019-04-05T11:30:15.742Z,993.10
2019-04-05T11:31:15.761Z,993.08
2019-04-05T11:32:15.723Z,993.14
2019-04-05T11:33:20.731Z,993.07
2019-04-05T11:34:15.723Z,993.02
2019-04-05T11:35:15.685Z,993.09
2019-04-05T11:36:15.687Z,993.11
2019-04-05T11:37:16.897Z,993.13
2019-04-05T11:38:15.651Z,993.13
2019-04-05T11:39:15.646Z,993.14
2019-04-05T11:40:15.633Z,993.06
2019-04-05T11:41:15.643Z,993.03
2019-04-05T11:42:15.610Z,993.03
2019-04-05T11:43:15.596Z,992.97
2019-04-05T11:44:20.606Z,993.01
2019-04-05T11:45:15.577Z,992.96
2019-04-05T11:46:18.108Z,992.93
2019-04-05T11:47:17.229Z,992.93
2019-04-05T11:48:15.539Z,992.96
2019-04-05T11:49:15.530Z,992.94
2019-04-05T11:50:15.524Z,992.95
2019-04-05T11:51:15.519Z,992.95
2019-04-05T11:52:15.515Z,992.96
2019-04-05T11:53:15.491Z,992.98
2019-04-05T11:54:18.321Z,992.97
2019-04-05T11:55:20.494Z,992.91
2019-04-05T11:56:19.658Z,992.87
2019-04-05T11:57:15.457Z,992.88
2019-04-05T11:58:15.426Z,992.89
2019-04-05T11:59:16.153Z,992.87
2019-04-05T12:00:15.407Z,992.81
2019-04-05T12:01:15.391Z,992.91
2019-04-05T12:02:15.422Z,992.93
2019-04-05T12:03:15.382Z,992.90
2019-04-05T12:04:15.356Z,992.97
2019-04-05T12:05:15.344Z,992.96
2019-04-05T12:06:20.364Z,992.99
2019-04-05T12:07:15.386Z,992.92
2019-04-05T12:08:15.314Z,992.87
2019-04-05T12:09:15.298Z,992.97
2019-04-05T12:10:18.735Z,993.00
2019-04-05T12:11:15.283Z,992.93
2019-04-05T12:12:15.278Z,992.92
2019-04-05T12:13:15.253Z,992.94
2019-04-05T12:14:15.243Z,993.00
2019-04-05T12:15:15.305Z,992.94
2019-04-05T12:16:15.219Z,992.97
2019-04-05T12:17:20.239Z,992.88
2019-04-05T12:18:19.213Z,992.91
2019-04-05T12:19:15.184Z,992.88
2019-04-05T12:20:15.175Z,992.87
2019-04-05T12:21:15.161Z,992.89
2019-04-05T12:22:15.161Z,992.94
2019-04-05T12:23:15.143Z,992.91
2019-04-05T12:24:15.127Z,992.88
2019-04-05T12:25:15.119Z,992.94
2019-04-05T12:26:15.103Z,992.97
2019-04-05T12:27:15.108Z,992.92
2019-04-05T12:28:20.109Z,992.89